createdAt,value
2022-08-05T00:01:28.976Z,23.50
2022-08-05T00:03:57.234Z,23.10
2022-08-05T00:06:32.129Z,21.90
2022-08-05T00:11:30.311Z,23.00
2022-08-05T00:14:02.307Z,21.10
2022-08-05T00:16:52.358Z,22.20
2022-08-05T00:19:24.996Z,21.80
2022-08-05T00:22:07.580Z,22.50
2022-08-05T00:24:38.641Z,21.30
2022-08-05T00:27:10.563Z,21.40
2022-08-05T00:29:42.969Z,22.30
2022-08-05T00:32:15.022Z,19.50
2022-08-05T00:35:05.263Z,20.00
2022-08-05T00:37:50.603Z,22.20
2022-08-05T00:40:26.791Z,21.70
2022-08-05T00:42:56.677Z,21.60
2022-08-05T00:47:56.427Z,22.40
2022-08-05T00:50:25.505Z,21.60
2022-08-05T00:52:54.915Z,23.10
2022-08-05T00:55:22.932Z,23.00
2022-08-05T00:57:57.867Z,23.00
2022-08-05T01:00:29.786Z,23.10
2022-08-05T01:02:57.199Z,20.90
2022-08-05T01:08:30.624Z,19.60
2022-08-05T01:11:11.844Z,20.20
2022-08-05T01:13:58.421Z,22.20
2022-08-05T01:16:33.642Z,19.90
2022-08-05T01:19:14.163Z,21.60
2022-08-05T01:24:23.514Z,19.70
2022-08-05T01:26:50.395Z,19.40
2022-08-05T01:29:22.927Z,18.70
2022-08-05T01:31:52.700Z,20.20
2022-08-05T01:34:42.962Z,21.80
2022-08-05T01:37:10.995Z,21.20
2022-08-05T01:39:54.937Z,19.00
2022-08-05T01:42:27.164Z,20.40
2022-08-05T01:44:55.964Z,18.80
2022-08-05T01:47:23.621Z,22.10
2022-08-05T01:50:01.567Z,18.80
2022-08-05T01:52:31.247Z,18.60
2022-08-05T01:55:01.436Z,20.80
2022-08-05T01:58:13.192Z,19.00
2022-08-05T02:00:20.003Z,20.70
2022-08-05T02:03:03.502Z,18.90
2022-08-05T02:05:34.278Z,21.20
2022-08-05T02:08:03.355Z,22.50
2022-08-05T02:10:36.475Z,21.60
2022-08-05T02:13:15.908Z,21.10
2022-08-05T02:15:50.211Z,22.30
2022-08-05T02:18:31.170Z,22.20
2022-08-05T02:21:18.707Z,21.70
2022-08-05T02:23:48.523Z,21.20
2022-08-05T02:26:19.150Z,19.00
2022-08-05T02:28:49.494Z,19.90
2022-08-05T02:31:22.472Z,18.40
2022-08-05T02:34:01.317Z,21.10
2022-08-05T02:36:31.400Z,19.60
2022-08-05T02:39:00.006Z,20.60
2022-08-05T02:41:28.840Z,18.60
2022-08-05T02:44:12.086Z,21.30
2022-08-05T02:46:43.999Z,22.20
2022-08-05T02:49:21.906Z,20.60
2022-08-05T02:52:02.825Z,18.40
2022-08-05T02:54:34.955Z,18.20
2022-08-05T02:57:10.286Z,21.10
2022-08-05T02:59:54.249Z,18.10
2022-08-05T03:02:23.958Z,22.10
2022-08-05T03:04:55.188Z,21.00
2022-08-05T03:07:59.298Z,19.20
2022-08-05T03:10:10.045Z,21.40
2022-08-05T03:12:38.671Z,21.30
2022-08-05T03:15:07.050Z,21.90
2022-08-05T03:17:41.545Z,18.80
2022-08-05T03:20:10.037Z,20.90
2022-08-05T03:22:37.726Z,21.40
2022-08-05T03:25:33.392Z,17.40
2022-08-05T03:28:05.818Z,19.70
2022-08-05T03:30:34.380Z,17.50
2022-08-05T03:33:02.871Z,21.70
2022-08-05T03:35:33.708Z,17.80
2022-08-05T03:38:01.619Z,18.70
2022-08-05T03:40:31.813Z,18.20
2022-08-05T03:43:15.815Z,20.30
2022-08-05T03:45:58.339Z,18.90
2022-08-05T03:48:29.791Z,20.40
2022-08-05T03:52:48.554Z,20.90
2022-08-05T03:55:49.760Z,20.90
2022-08-05T03:56:58.883Z,20.30
2022-08-05T03:59:47.132Z,21.90
2022-08-05T04:02:37.414Z,20.80
2022-08-05T04:05:09.574Z,21.70
2022-08-05T04:07:58.029Z,18.20
2022-08-05T04:10:27.938Z,19.30
2022-08-05T04:12:58.959Z,18.80
2022-08-05T04:15:27.776Z,20.60
2022-08-05T04:18:07.266Z,18.00
2022-08-05T04:20:35.178Z,19.60
2022-08-05T04:23:02.769Z,18.30
2022-08-05T04:25:57.804Z,18.30
2022-08-05T04:28:18.821Z,18.70
2022-08-05T04:30:48.050Z,21.00
2022-08-05T04:33:15.747Z,22.10
2022-08-05T04:36:15.626Z,21.60
2022-08-05T04:38:40.013Z,20.30
2022-08-05T04:41:09.635Z,18.20
2022-08-05T04:43:40.691Z,21.10
2022-08-05T04:46:28.219Z,22.20
2022-08-05T04:48:57.979Z,22.20
2022-08-05T04:51:26.058Z,19.00
2022-08-05T04:53:57.871Z,21.60
2022-08-05T04:56:34.436Z,18.30
2022-08-05T04:59:21.523Z,21.50
2022-08-05T05:02:07.607Z,20.40
2022-08-05T05:04:38.162Z,21.40
2022-08-05T05:07:09.584Z,21.10
2022-08-05T05:09:37.266Z,22.20
2022-08-05T05:12:06.158Z,22.10
2022-08-05T05:14:33.582Z,19.30
2022-08-05T05:17:03.731Z,22.20
2022-08-05T05:19:37.232Z,19.00
2022-08-05T05:22:23.012Z,21.40
2022-08-05T05:24:58.377Z,22.20
2022-08-05T05:27:45.888Z,20.90
2022-08-05T05:30:15.548Z,21.30
2022-08-05T05:32:56.244Z,21.50
2022-08-05T05:35:23.303Z,20.20
2022-08-05T05:37:59.700Z,18.40
2022-08-05T05:40:30.167Z,22.60
2022-08-05T05:42:59.644Z,21.40
2022-08-05T05:45:29.236Z,21.80
2022-08-05T05:48:07.940Z,21.80
2022-08-05T05:50:44.021Z,18.90
2022-08-05T05:53:22.371Z,19.80
2022-08-05T05:55:51.590Z,21.90
2022-08-05T05:58:30.141Z,22.40
2022-08-05T06:01:02.408Z,19.60
2022-08-05T06:04:01.272Z,21.40
2022-08-05T06:06:33.032Z,23.20
2022-08-05T06:09:00.410Z,22.00
2022-08-05T06:11:28.795Z,23.30
2022-08-05T06:13:56.426Z,19.30
2022-08-05T06:16:29.280Z,23.40
2022-08-05T06:19:00.774Z,19.90
2022-08-05T06:21:36.105Z,19.50
2022-08-05T06:24:06.148Z,23.00
2022-08-05T06:26:35.158Z,22.70
2022-08-05T06:29:03.695Z,24.00
2022-08-05T06:31:48.056Z,24.10
2022-08-05T06:34:19.950Z,22.50
2022-08-05T06:36:57.618Z,21.40
2022-08-05T06:39:27.219Z,20.60
2022-08-05T06:42:04.102Z,22.30
2022-08-05T06:44:31.483Z,24.40
2022-08-05T06:46:58.517Z,23.70
2022-08-05T06:50:00.406Z,24.30
2022-08-05T06:52:37.291Z,24.70
2022-08-05T06:55:03.396Z,23.80
2022-08-05T06:58:03.547Z,24.20
2022-08-05T07:00:24.561Z,21.90
2022-08-05T07:02:53.933Z,24.20
2022-08-05T07:05:24.616Z,24.70
2022-08-05T07:08:04.102Z,23.90
2022-08-05T07:10:32.624Z,25.20
2022-08-05T07:13:46.337Z,21.70
2022-08-05T07:16:50.970Z,25.00
2022-08-05T07:19:10.825Z,24.60
2022-08-05T07:21:59.855Z,24.60
2022-08-05T07:24:28.752Z,22.00
2022-08-05T07:26:56.998Z,22.30
2022-08-05T07:30:24.669Z,22.30
2022-08-05T07:32:12.418Z,24.90
2022-08-05T07:34:42.479Z,25.90
2022-08-05T07:37:11.709Z,26.00
2022-08-05T07:40:26.012Z,25.60
2022-08-05T07:42:31.710Z,23.00
2022-08-05T07:45:01.116Z,24.40
2022-08-05T07:47:42.363Z,25.40
2022-08-05T07:50:09.801Z,26.20
2022-08-05T07:52:40.422Z,26.00
2022-08-05T07:55:43.915Z,25.60
2022-08-05T07:58:02.434Z,25.60
2022-08-05T08:00:30.234Z,23.80
2022-08-05T08:03:13.781Z,26.40
2022-08-05T08:05:49.412Z,25.30
2022-08-05T08:08:17.052Z,26.60
2022-08-05T08:10:48.817Z,23.30
2022-08-05T08:13:22.108Z,26.20
2022-08-05T08:16:34.667Z,24.10
2022-08-05T08:18:43.360Z,27.00
2022-08-05T08:21:17.724Z,26.90
2022-08-05T08:24:02.012Z,27.40
2022-08-05T08:26:31.745Z,26.50
2022-08-05T08:29:09.720Z,27.30
2022-08-05T08:31:47.495Z,27.50
2022-08-05T08:34:15.881Z,26.40
2022-08-05T08:36:49.113Z,27.30
2022-08-05T08:39:19.788Z,26.80
2022-08-05T08:41:52.231Z,26.30
2022-08-05T08:45:18.096Z,27.50
2022-08-05T08:47:47.668Z,24.70
2022-08-05T08:50:30.694Z,28.00
2022-08-05T08:52:54.092Z,25.20
2022-08-05T08:55:31.805Z,27.00
2022-08-05T08:58:10.229Z,28.00
2022-08-05T09:00:40.677Z,26.20
2022-08-05T09:03:09.831Z,28.40
2022-08-05T09:05:38.719Z,27.60
2022-08-05T09:08:27.433Z,27.50
2022-08-05T09:10:57.680Z,27.30
2022-08-05T09:13:24.667Z,27.90
2022-08-05T09:15:58.726Z,27.50
2022-08-05T09:18:25.736Z,28.90
2022-08-05T09:20:52.937Z,28.60
2022-08-05T09:23:21.772Z,27.80
2022-08-05T09:26:00.818Z,28.30
2022-08-05T09:28:32.205Z,28.90
2022-08-05T09:31:44.008Z,28.20
2022-08-05T09:34:01.034Z,28.50
2022-08-05T09:36:55.279Z,28.80
2022-08-05T09:39:41.298Z,28.50
2022-08-05T09:42:17.415Z,29.00
2022-08-05T09:44:51.411Z,29.40
2022-08-05T09:47:20.630Z,27.50
2022-08-05T09:50:02.019Z,29.40
2022-08-05T09:52:31.105Z,29.80
2022-08-05T09:55:06.273Z,28.10
2022-08-05T09:57:54.398Z,30.10
2022-08-05T10:00:26.531Z,29.00
2022-08-05T10:02:54.751Z,29.70
2022-08-05T10:05:26.810Z,31.60
2022-08-05T10:08:34.999Z,34.10
2022-08-05T10:10:44.732Z,35.90
2022-08-05T10:13:11.968Z,37.50
2022-08-05T10:15:41.684Z,38.10
2022-08-05T10:18:12.853Z,39.40
2022-08-05T10:20:49.940Z,40.40
2022-08-05T10:23:34.717Z,41.30
2022-08-05T10:26:14.488Z,41.50
2022-08-05T10:28:42.984Z,42.30
2022-08-05T10:32:49.238Z,42.80
2022-08-05T10:33:59.265Z,43.20
2022-08-05T10:36:27.710Z,43.60
2022-08-05T10:38:59.092Z,43.30
2022-08-05T10:41:45.314Z,43.20
2022-08-05T10:44:17.146Z,42.60
2022-08-05T10:46:54.051Z,41.70
2022-08-05T10:49:27.233Z,41.80
2022-08-05T10:52:02.696Z,41.10
2022-08-05T10:55:01.763Z,42.40
2022-08-05T10:57:30.879Z,43.80
2022-08-05T11:00:30.147Z,43.50
2022-08-05T11:03:25.434Z,44.80
2022-08-05T11:06:05.314Z,45.60
2022-08-05T11:08:38.188Z,46.80
2022-08-05T11:11:33.044Z,47.60
2022-08-05T11:14:10.772Z,47.50
2022-08-05T11:16:56.149Z,47.40
2022-08-05T11:20:11.216Z,47.90
2022-08-05T11:22:33.716Z,48.30
2022-08-05T11:26:05.849Z,49.10
2022-08-05T11:28:12.016Z,48.60
2022-08-05T11:31:06.544Z,45.50
2022-08-05T11:33:46.365Z,44.00
2022-08-05T11:36:34.213Z,46.60
2022-08-05T11:39:06.244Z,48.00
2022-08-05T11:42:01.392Z,48.80
2022-08-05T11:44:52.766Z,48.50
2022-08-05T11:47:15.069Z,49.00
2022-08-05T11:49:49.882Z,49.80
2022-08-05T11:52:29.239Z,50.30
2022-08-05T11:54:58.081Z,49.40
2022-08-05T11:58:08.557Z,50.10
2022-08-05T12:00:28.809Z,49.50
2022-08-05T12:02:56.587Z,48.90
2022-08-05T12:05:36.507Z,48.60
2022-08-05T12:08:10.078Z,48.90
2022-08-05T12:10:45.400Z,49.60
2022-08-05T12:13:28.172Z,50.40
2022-08-05T12:16:17.435Z,50.40
2022-08-05T12:18:49.013Z,50.60
2022-08-05T12:21:43.674Z,50.70
2022-08-05T12:24:17.351Z,51.30
2022-08-05T12:26:45.790Z,52.70
2022-08-05T12:29:22.500Z,52.60
2022-08-05T12:31:57.043Z,52.20
2022-08-05T12:34:28.488Z,52.60
2022-08-05T12:36:56.786Z,50.80
2022-08-05T12:39:28.145Z,51.20
2022-08-05T12:42:02.370Z,50.20
2022-08-05T12:44:33.849Z,51.00
2022-08-05T12:47:02.166Z,52.20
2022-08-05T12:50:03.284Z,52.10
2022-08-05T12:52:33.916Z,52.50
2022-08-05T12:55:22.992Z,52.40
2022-08-05T12:58:48.495Z,51.20
2022-08-05T13:02:00.690Z,50.00
2022-08-05T13:03:32.301Z,51.80
2022-08-05T13:06:01.119Z,50.20
2022-08-05T13:08:29.256Z,50.40
2022-08-05T13:11:02.352Z,51.90
2022-08-05T13:14:06.742Z,51.40
2022-08-05T13:16:17.378Z,51.90
2022-08-05T13:18:57.927Z,52.00
2022-08-05T13:21:28.595Z,51.60
2022-08-05T13:24:05.817Z,50.80
2022-08-05T13:26:35.862Z,52.20
2022-08-05T13:29:03.129Z,51.70
2022-08-05T13:32:03.451Z,53.10
2022-08-05T13:34:23.914Z,51.60
2022-08-05T13:36:53.395Z,52.80
2022-08-05T13:42:14.695Z,55.30
2022-08-05T13:44:46.299Z,54.50
2022-08-05T13:47:34.658Z,54.90
2022-08-05T13:50:01.233Z,54.00
2022-08-05T13:52:35.566Z,53.10
2022-08-05T13:55:07.594Z,51.50
2022-08-05T13:57:51.011Z,49.10
2022-08-05T14:00:27.737Z,47.00
2022-08-05T14:02:58.070Z,45.20
2022-08-05T14:05:29.324Z,44.10
2022-08-05T14:08:21.065Z,43.70
2022-08-05T14:11:03.064Z,43.80
2022-08-05T14:13:42.434Z,43.40
2022-08-05T14:16:11.687Z,42.60
2022-08-05T14:18:43.615Z,42.20
2022-08-05T14:22:10.277Z,41.90
2022-08-05T14:23:57.706Z,41.20
2022-08-05T14:26:37.039Z,40.90
2022-08-05T14:29:16.478Z,40.80
2022-08-05T14:32:03.295Z,41.40
2022-08-05T14:34:35.301Z,40.90
2022-08-05T14:37:03.718Z,42.00
2022-08-05T14:39:49.258Z,44.90
2022-08-05T14:42:29.228Z,46.40
2022-08-05T14:44:56.707Z,46.70
2022-08-05T14:48:04.205Z,46.50
2022-08-05T14:50:17.759Z,46.80
2022-08-05T14:52:53.056Z,45.40
2022-08-05T14:55:24.464Z,42.60
2022-08-05T14:57:56.171Z,44.40
2022-08-05T15:00:27.678Z,42.60
2022-08-05T15:02:55.518Z,41.80
2022-08-05T15:05:30.053Z,41.50
2022-08-05T15:08:17.909Z,40.90
2022-08-05T15:10:56.966Z,40.40
2022-08-05T15:13:45.781Z,39.10
2022-08-05T15:16:13.020Z,39.20
2022-08-05T15:18:40.318Z,38.90
2022-08-05T15:21:08.726Z,38.60
2022-08-05T15:23:35.723Z,38.20
2022-08-05T15:26:05.009Z,38.00
2022-08-05T15:28:31.986Z,37.50
2022-08-05T15:30:58.952Z,36.90
2022-08-05T15:34:05.540Z,36.60
2022-08-05T15:36:17.400Z,36.90
2022-08-05T15:40:41.570Z,36.00
2022-08-05T15:41:58.584Z,36.40
2022-08-05T15:44:26.315Z,35.00
2022-08-05T15:46:55.819Z,35.20
2022-08-05T15:49:39.950Z,35.30
2022-08-05T15:52:16.180Z,35.30
2022-08-05T15:54:55.907Z,34.90
2022-08-05T15:57:23.679Z,34.70
2022-08-05T15:59:56.690Z,34.60
2022-08-05T16:02:25.592Z,34.50
2022-08-05T16:04:52.902Z,34.30
2022-08-05T16:07:23.054Z,34.10
2022-08-05T16:09:49.997Z,34.00
2022-08-05T16:12:17.158Z,33.60
2022-08-05T16:14:46.819Z,33.70
2022-08-05T16:17:13.910Z,33.80
2022-08-05T16:20:04.502Z,33.80
2022-08-05T16:22:34.048Z,33.50
2022-08-05T16:25:07.874Z,34.40
2022-08-05T16:28:00.941Z,33.40
2022-08-05T16:30:26.150Z,33.30
2022-08-05T16:32:55.614Z,33.30
2022-08-05T16:35:28.672Z,33.20
2022-08-05T16:38:15.487Z,34.50
2022-08-05T16:40:55.036Z,32.90
2022-08-05T16:43:23.899Z,32.90
2022-08-05T16:46:07.011Z,33.00
2022-08-05T16:48:39.165Z,32.70
2022-08-05T16:51:09.879Z,33.10
2022-08-05T16:54:05.862Z,32.40
2022-08-05T16:56:26.585Z,31.90
2022-08-05T16:58:54.223Z,33.60
2022-08-05T17:01:21.544Z,32.60
2022-08-05T17:03:51.907Z,32.20
2022-08-05T17:06:19.249Z,31.00
2022-08-05T17:08:52.088Z,32.70
2022-08-05T17:11:23.529Z,32.00
2022-08-05T17:14:00.638Z,31.80
2022-08-05T17:16:37.772Z,32.00
2022-08-05T17:19:07.365Z,32.00
2022-08-05T17:21:35.994Z,32.00
2022-08-05T17:24:28.435Z,32.30
2022-08-05T17:26:56.199Z,31.70
2022-08-05T17:29:33.224Z,31.50
2022-08-05T17:32:06.841Z,32.10
2022-08-05T17:34:35.542Z,31.60
2022-08-05T17:37:02.453Z,31.00
2022-08-05T17:39:34.339Z,31.40
2022-08-05T17:42:18.439Z,31.40
2022-08-05T17:44:50.908Z,31.40
2022-08-05T17:47:23.073Z,32.00
2022-08-05T17:49:59.844Z,31.20
2022-08-05T17:52:31.886Z,31.30
2022-08-05T17:54:58.993Z,31.80
2022-08-05T17:57:25.992Z,31.80
2022-08-05T18:00:03.802Z,30.90
2022-08-05T18:02:35.856Z,31.20
2022-08-05T18:05:06.364Z,31.50
2022-08-05T18:07:41.139Z,30.90
2022-08-05T18:10:20.620Z,31.20
2022-08-05T18:12:48.942Z,31.10
2022-08-05T18:15:15.908Z,30.80
2022-08-05T18:18:01.211Z,30.40
2022-08-05T18:20:31.746Z,30.10
2022-08-05T18:23:04.869Z,31.30
2022-08-05T18:25:38.915Z,30.60
2022-08-05T18:28:09.416Z,30.30
2022-08-05T18:30:39.096Z,30.00
2022-08-05T18:33:08.509Z,30.40
2022-08-05T18:35:59.640Z,29.60
2022-08-05T18:38:28.522Z,29.80
2022-08-05T18:41:58.476Z,30.10
2022-08-05T18:43:43.079Z,29.10
2022-08-05T18:46:20.017Z,29.50
2022-08-05T18:48:51.790Z,29.60
2022-08-05T18:52:04.583Z,29.50
2022-08-05T18:54:26.015Z,29.80
2022-08-05T18:56:54.543Z,28.00
2022-08-05T18:59:43.522Z,29.50
2022-08-05T19:02:11.463Z,29.50
2022-08-05T19:05:02.167Z,29.10
2022-08-05T19:07:46.738Z,29.50
2022-08-05T19:10:14.405Z,29.40
2022-08-05T19:12:41.669Z,29.10
2022-08-05T19:15:25.054Z,30.70
2022-08-05T19:18:08.772Z,29.50
2022-08-05T19:20:41.742Z,29.40
2022-08-05T19:24:04.520Z,27.40
2022-08-05T19:26:01.606Z,27.50
2022-08-05T19:28:30.182Z,28.60
2022-08-05T19:30:57.388Z,29.20
2022-08-05T19:33:35.090Z,28.80
2022-08-05T19:36:03.883Z,28.60
2022-08-05T19:38:35.666Z,28.70
2022-08-05T19:41:07.172Z,27.00
2022-08-05T19:44:06.954Z,28.50
2022-08-05T19:46:29.283Z,27.80
2022-08-05T19:49:03.483Z,28.40
2022-08-05T19:51:59.847Z,28.40
2022-08-05T19:54:27.012Z,27.60
2022-08-05T19:56:58.788Z,28.80
2022-08-05T19:59:59.549Z,26.60
2022-08-05T20:02:14.796Z,28.80
2022-08-05T20:04:46.029Z,28.70
2022-08-05T20:07:13.840Z,27.80
2022-08-05T20:09:55.109Z,28.60
2022-08-05T20:12:24.437Z,28.40
2022-08-05T20:14:52.871Z,28.30
2022-08-05T20:17:23.615Z,28.30
2022-08-05T20:19:57.022Z,28.20
2022-08-05T20:22:27.026Z,27.30
2022-08-05T20:24:55.598Z,27.50
2022-08-05T20:27:26.720Z,27.80
2022-08-05T20:29:57.563Z,27.60
2022-08-05T20:32:26.740Z,28.00
2022-08-05T20:34:54.501Z,27.90
2022-08-05T20:38:04.636Z,27.30
2022-08-05T20:40:09.043Z,28.10
2022-08-05T20:45:04.630Z,27.80
2022-08-05T20:52:29.233Z,27.40
2022-08-05T20:57:44.814Z,27.20
2022-08-05T21:00:34.865Z,27.10
2022-08-05T21:03:06.843Z,27.40
2022-08-05T21:08:15.532Z,27.40
2022-08-05T21:10:49.064Z,27.60
2022-08-05T21:13:26.578Z,27.70
2022-08-05T21:16:03.789Z,27.60
2022-08-05T21:20:58.174Z,27.60
2022-08-05T21:23:25.133Z,27.40
2022-08-05T21:25:52.163Z,27.10
2022-08-05T21:28:23.859Z,27.50
2022-08-05T21:33:22.267Z,26.90
2022-08-05T21:35:58.305Z,27.40
2022-08-05T21:38:26.608Z,27.40
2022-08-05T21:43:24.835Z,27.10
2022-08-05T21:45:57.766Z,26.80
2022-08-05T21:48:28.027Z,26.80
2022-08-05T21:50:55.533Z,26.70
2022-08-05T21:53:27.087Z,26.30
2022-08-05T22:52:54.007Z,21.30
2022-08-05T23:20:26.271Z,21.40
2022-08-05T23:45:38.502Z,20.00
